createdAt,value
2022-09-28T00:00:24.753Z,7.5
2022-09-28T00:01:26.764Z,7.5
2022-09-28T00:02:28.795Z,7.6
2022-09-28T00:03:29.651Z,7.5
2022-09-28T00:04:30.670Z,7.6
2022-09-28T00:05:31.631Z,7.5
2022-09-28T00:06:32.678Z,7.5
2022-09-28T00:07:34.631Z,7.5
2022-09-28T00:08:36.601Z,7.5
2022-09-28T00:09:37.673Z,7.5
2022-09-28T00:10:38.691Z,7.5
2022-09-28T00:11:39.626Z,7.6
2022-09-28T00:12:40.630Z,7.6
2022-09-28T00:13:41.683Z,7.6
2022-09-28T00:14:43.772Z,7.6
2022-09-28T00:15:45.702Z,7.6
2022-09-28T00:16:46.767Z,7.7
2022-09-28T00:17:47.708Z,7.6
2022-09-28T00:18:48.631Z,7.7
2022-09-28T00:19:50.670Z,7.6
2022-09-28T00:20:52.671Z,7.7
2022-09-28T00:21:53.611Z,7.7
2022-09-28T00:22:54.631Z,7.6
2022-09-28T00:23:55.731Z,7.7
2022-09-28T00:24:56.610Z,7.7
2022-09-28T00:25:57.671Z,7.7
2022-09-28T00:26:58.673Z,7.7
2022-09-28T00:27:59.650Z,7.7
2022-09-28T00:29:02.122Z,7.6
2022-09-28T00:30:03.811Z,7.7
2022-09-28T00:31:05.719Z,7.7
2022-09-28T00:32:07.650Z,7.8
2022-09-28T00:33:09.710Z,7.8
2022-09-28T00:34:11.670Z,7.8
2022-09-28T00:35:12.690Z,7.7
2022-09-28T00:36:13.682Z,7.7
2022-09-28T00:37:14.651Z,7.6
2022-09-28T00:38:15.690Z,7.5
2022-09-28T00:39:16.778Z,7.5
2022-09-28T00:40:17.702Z,7.5
2022-09-28T00:41:18.699Z,7.4
2022-09-28T00:42:20.811Z,7.4
2022-09-28T00:43:22.710Z,7.5
2022-09-28T00:44:26.674Z,7.5
2022-09-28T00:45:27.624Z,7.5
2022-09-28T00:46:28.654Z,7.6
2022-09-28T00:47:29.730Z,7.6
2022-09-28T00:48:30.632Z,7.7
2022-09-28T00:49:31.598Z,7.7
2022-09-28T00:50:32.675Z,7.8
2022-09-28T00:51:33.690Z,7.8
2022-09-28T00:52:35.718Z,7.9
2022-09-28T00:53:37.712Z,7.9
2022-09-28T00:54:39.632Z,8
2022-09-28T00:55:41.670Z,8
2022-09-28T00:56:42.691Z,8.1
2022-09-28T00:57:43.732Z,8.1
2022-09-28T00:58:44.670Z,8.2
2022-09-28T00:59:45.612Z,8.1
2022-09-28T01:04:07.438Z,8.3
2022-09-28T01:05:08.688Z,8.3
2022-09-28T01:06:09.714Z,8.3
2022-09-28T01:07:10.735Z,8.3
2022-09-28T01:08:11.694Z,8.3
2022-09-28T01:09:12.741Z,8.3
2022-09-28T01:10:13.716Z,8.3
2022-09-28T01:11:14.703Z,8.3
2022-09-28T01:12:16.654Z,8.3
2022-09-28T01:13:17.655Z,8.2
2022-09-28T01:14:18.634Z,8.2
2022-09-28T01:15:19.688Z,8.1
2022-09-28T01:16:20.722Z,8.1
2022-09-28T01:17:22.675Z,8
2022-09-28T01:18:23.695Z,8
2022-09-28T01:19:24.700Z,8
2022-09-28T01:20:25.675Z,8
2022-09-28T01:21:26.674Z,7.9
2022-09-28T01:22:27.677Z,7.8
2022-09-28T01:23:28.715Z,7.8
2022-09-28T01:24:29.655Z,7.7
2022-09-28T01:25:30.654Z,7.6
2022-09-28T01:26:31.678Z,7.5
2022-09-28T01:27:32.660Z,7.5
2022-09-28T01:28:33.727Z,7.4
2022-09-28T01:29:34.675Z,7.3
2022-09-28T01:30:35.836Z,7.3
2022-09-28T01:31:37.696Z,7.2
2022-09-28T01:32:38.767Z,7.3
2022-09-28T01:33:39.660Z,7.3
2022-09-28T01:34:40.702Z,7.3
2022-09-28T01:35:41.654Z,7.2
2022-09-28T01:36:42.677Z,7.2
2022-09-28T01:37:44.676Z,7.2
2022-09-28T01:38:46.694Z,7.1
2022-09-28T01:39:48.656Z,7.2
2022-09-28T01:40:50.813Z,7.1
2022-09-28T01:41:52.660Z,7.2
2022-09-28T01:42:53.655Z,7.2
2022-09-28T01:43:55.675Z,7.2
2022-09-28T01:44:57.720Z,7.2
2022-09-28T01:45:58.725Z,7.2
2022-09-28T01:46:59.694Z,7.2
2022-09-28T01:48:00.757Z,7.3
2022-09-28T01:49:01.676Z,7.4
2022-09-28T01:50:02.778Z,7.4
2022-09-28T01:51:03.694Z,7.5
2022-09-28T01:52:04.735Z,7.5
2022-09-28T01:53:05.715Z,7.6
2022-09-28T01:54:06.734Z,7.6
2022-09-28T01:55:07.686Z,7.6
2022-09-28T01:56:08.705Z,7.6
2022-09-28T01:57:09.706Z,7.7
2022-09-28T01:58:10.679Z,7.7
2022-09-28T01:59:11.814Z,7.7
2022-09-28T02:00:12.794Z,7.8
2022-09-28T02:01:14.782Z,7.9
2022-09-28T02:02:15.798Z,7.9
2022-09-28T02:03:16.732Z,8
2022-09-28T02:04:17.715Z,8
2022-09-28T02:05:18.691Z,8
2022-09-28T02:06:19.695Z,8
2022-09-28T02:07:20.735Z,8
2022-09-28T02:08:21.637Z,8
2022-09-28T02:09:22.694Z,8
2022-09-28T02:10:23.779Z,8
2022-09-28T02:11:24.675Z,8
2022-09-28T02:12:25.695Z,8
2022-09-28T02:13:26.734Z,8
2022-09-28T02:14:27.767Z,7.9
2022-09-28T02:15:28.814Z,8
2022-09-28T02:16:29.779Z,8
2022-09-28T02:17:30.774Z,8
2022-09-28T02:18:31.706Z,8.1
2022-09-28T02:19:32.758Z,8.2
2022-09-28T02:20:33.819Z,8.2
2022-09-28T02:21:34.678Z,8.2
2022-09-28T02:22:35.755Z,8.2
2022-09-28T02:23:36.775Z,8.2
2022-09-28T02:24:37.735Z,8.1
2022-09-28T02:25:38.697Z,8
2022-09-28T02:26:39.715Z,8
2022-09-28T02:27:40.754Z,7.9
2022-09-28T02:28:41.777Z,7.8
2022-09-28T02:29:42.735Z,7.8
2022-09-28T02:30:43.796Z,7.7
2022-09-28T02:31:44.863Z,7.7
2022-09-28T02:32:45.714Z,7.7
2022-09-28T02:33:46.795Z,7.7
2022-09-28T02:34:48.696Z,7.6
2022-09-28T02:35:49.748Z,7.7
2022-09-28T02:36:50.714Z,7.6
2022-09-28T02:37:51.738Z,7.6
2022-09-28T02:38:52.774Z,7.6
2022-09-28T02:39:53.735Z,7.6
2022-09-28T02:40:54.775Z,7.6
2022-09-28T02:41:55.735Z,7.6
2022-09-28T02:42:56.755Z,7.7
2022-09-28T02:43:57.855Z,7.7
2022-09-28T02:44:59.714Z,7.7
2022-09-28T02:46:00.817Z,7.8
2022-09-28T02:47:01.755Z,7.8
2022-09-28T02:48:02.719Z,7.8
2022-09-28T02:49:20.115Z,7.9
2022-09-28T02:50:05.857Z,7.8
2022-09-28T02:51:07.780Z,7.8
2022-09-28T02:52:08.735Z,7.8
2022-09-28T02:53:09.734Z,7.7
2022-09-28T02:54:11.974Z,7.7
2022-09-28T02:55:11.734Z,7.7
2022-09-28T02:56:12.775Z,7.7
2022-09-28T02:57:13.823Z,7.7
2022-09-28T02:58:15.714Z,7.8
2022-09-28T02:59:16.828Z,7.8
2022-09-28T03:00:17.777Z,8
2022-09-28T03:01:18.817Z,8.1
2022-09-28T03:02:20.811Z,8
2022-09-28T03:03:22.755Z,8.1
2022-09-28T03:04:24.734Z,8
2022-09-28T03:05:25.695Z,8.1
2022-09-28T03:06:26.838Z,8.2
2022-09-28T03:07:27.739Z,8.3
2022-09-28T03:08:28.755Z,8.3
2022-09-28T03:09:29.736Z,8.3
2022-09-28T03:10:30.755Z,8.3
2022-09-28T03:11:31.755Z,8.3
2022-09-28T03:12:32.781Z,8.3
2022-09-28T03:13:33.795Z,8.3
2022-09-28T03:14:35.697Z,8.3
2022-09-28T03:15:36.775Z,8.3
2022-09-28T03:16:37.877Z,8.1
2022-09-28T03:17:39.695Z,8.1
2022-09-28T03:18:40.722Z,8.1
2022-09-28T03:19:41.795Z,8.1
2022-09-28T03:20:42.756Z,8
2022-09-28T03:21:43.825Z,8.1
2022-09-28T03:22:55.951Z,8.1
2022-09-28T03:23:45.775Z,8.2
2022-09-28T03:24:46.754Z,8.3
2022-09-28T03:25:47.778Z,8.3
2022-09-28T03:26:48.794Z,8.4
2022-09-28T03:27:49.735Z,8.4
2022-09-28T03:28:50.914Z,8.5
2022-09-28T03:29:52.775Z,8.6
2022-09-28T03:30:53.776Z,8.6
2022-09-28T03:31:54.765Z,8.6
2022-09-28T03:32:55.776Z,8.7
2022-09-28T03:33:56.775Z,8.8
2022-09-28T03:34:57.717Z,8.8
2022-09-28T03:35:58.774Z,8.8
2022-09-28T03:36:59.798Z,8.9
2022-09-28T03:38:00.757Z,8.9
2022-09-28T03:39:01.736Z,8.9
2022-09-28T03:40:02.795Z,9
2022-09-28T03:41:03.915Z,9
2022-09-28T03:42:04.778Z,9
2022-09-28T03:43:05.775Z,9
2022-09-28T03:44:06.755Z,9
2022-09-28T03:45:07.774Z,9.1
2022-09-28T03:46:08.843Z,9.1
2022-09-28T03:47:09.735Z,9.1
2022-09-28T03:48:10.794Z,9.2
2022-09-28T03:49:11.775Z,9.2
2022-09-28T03:50:12.734Z,9.2
2022-09-28T03:51:13.776Z,9.2
2022-09-28T03:52:14.778Z,9.2
2022-09-28T03:53:15.816Z,9.2
2022-09-28T03:54:16.754Z,9.2
2022-09-28T03:55:17.754Z,9.2
2022-09-28T03:56:18.754Z,9.2
2022-09-28T03:57:19.734Z,9.2
2022-09-28T03:58:20.815Z,9.2
2022-09-28T03:59:21.774Z,9.2
2022-09-28T04:00:22.776Z,9.2
2022-09-28T04:01:23.838Z,9.2
2022-09-28T04:02:24.786Z,9.1
2022-09-28T04:03:26.834Z,9
2022-09-28T04:04:27.720Z,8.9
2022-09-28T04:05:28.776Z,8.9
2022-09-28T04:06:29.773Z,8.9
2022-09-28T04:07:31.303Z,8.8
2022-09-28T04:08:31.696Z,8.7
2022-09-28T04:09:32.735Z,8.7
2022-09-28T04:10:33.781Z,8.7
2022-09-28T04:11:53.088Z,8.7
2022-09-28T04:12:37.755Z,8.7
2022-09-28T04:13:38.871Z,8.8
2022-09-28T04:14:39.771Z,8.8
2022-09-28T04:15:40.734Z,8.9
2022-09-28T04:16:41.839Z,9
2022-09-28T04:17:42.795Z,9.1
2022-09-28T04:18:44.798Z,9.2
2022-09-28T04:19:46.774Z,9.3
2022-09-28T04:20:48.774Z,9.3
2022-09-28T04:21:51.106Z,9.4
2022-09-28T04:22:52.762Z,9.5
2022-09-28T04:23:53.854Z,9.5
2022-09-28T04:24:54.776Z,9.4
2022-09-28T04:25:55.816Z,9.5
2022-09-28T04:26:56.814Z,9.4
2022-09-28T04:27:57.727Z,9.4
2022-09-28T04:29:01.636Z,9.4
2022-09-28T04:30:00.823Z,9.4
2022-09-28T04:31:01.835Z,9.5
2022-09-28T04:32:02.895Z,9.4
2022-09-28T04:33:04.755Z,9.4
2022-09-28T04:34:06.775Z,9.4
2022-09-28T04:35:08.755Z,9.4
2022-09-28T04:36:09.755Z,9.4
2022-09-28T04:37:10.786Z,9.5
2022-09-28T04:38:11.776Z,9.5
2022-09-28T04:39:12.810Z,9.6
2022-09-28T04:40:14.940Z,9.6
2022-09-28T04:41:15.785Z,9.6
2022-09-28T04:42:16.835Z,9.6
2022-09-28T04:43:18.774Z,9.7
2022-09-28T04:44:19.774Z,9.6
2022-09-28T04:45:21.754Z,9.6
2022-09-28T04:46:22.759Z,9.6
2022-09-28T04:47:23.815Z,9.7
2022-09-28T04:48:25.794Z,9.7
2022-09-28T04:49:27.838Z,9.7
2022-09-28T04:50:28.779Z,9.7
2022-09-28T04:51:29.777Z,9.6
2022-09-28T04:52:30.854Z,9.6
2022-09-28T04:53:31.820Z,9.5
2022-09-28T04:54:32.835Z,9.5
2022-09-28T04:55:34.774Z,9.4
2022-09-28T04:56:36.775Z,9.3
2022-09-28T04:57:38.774Z,9.3
2022-09-28T04:58:39.835Z,9.2
2022-09-28T04:59:40.896Z,9.1
2022-09-28T05:00:41.893Z,9
2022-09-28T05:01:42.774Z,8.9
2022-09-28T05:02:43.939Z,8.9
2022-09-28T05:03:45.844Z,8.9
2022-09-28T05:04:46.902Z,9
2022-09-28T05:05:48.846Z,9.1
2022-09-28T05:06:51.375Z,9.2
2022-09-28T05:07:52.816Z,9.2
2022-09-28T05:08:53.886Z,9.3
2022-09-28T05:09:54.814Z,9.4
2022-09-28T05:10:55.816Z,9.4
2022-09-28T05:11:56.796Z,9.5
2022-09-28T05:12:57.794Z,9.5
2022-09-28T05:13:58.850Z,9.6
2022-09-28T05:14:59.815Z,9.6
2022-09-28T05:16:05.156Z,9.7
2022-09-28T05:17:01.844Z,9.7
2022-09-28T05:18:02.887Z,9.7
2022-09-28T05:19:03.818Z,9.7
2022-09-28T05:20:04.854Z,9.7
2022-09-28T05:21:05.834Z,9.7
2022-09-28T05:22:06.799Z,9.7
2022-09-28T05:23:07.795Z,9.7
2022-09-28T05:24:08.802Z,9.6
2022-09-28T05:25:09.795Z,9.6
2022-09-28T05:26:10.762Z,9.6
2022-09-28T05:27:11.796Z,9.6
2022-09-28T05:28:12.817Z,9.6
2022-09-28T05:29:13.882Z,9.5
2022-09-28T05:30:14.816Z,9.5
2022-09-28T05:31:15.929Z,9.5
2022-09-28T05:32:16.756Z,9.6
2022-09-28T05:33:17.843Z,9.6
2022-09-28T05:34:18.780Z,9.5
2022-09-28T05:35:19.762Z,9.5
2022-09-28T05:36:20.855Z,9.5
2022-09-28T05:37:21.795Z,9.5
2022-09-28T05:38:22.779Z,9.5
2022-09-28T05:39:23.857Z,9.5
2022-09-28T05:40:24.962Z,9.5
2022-09-28T05:41:26.776Z,9.6
2022-09-28T05:42:27.795Z,9.6
2022-09-28T05:43:28.795Z,9.7
2022-09-28T05:44:29.855Z,9.7
2022-09-28T05:45:30.827Z,9.6
2022-09-28T05:46:31.794Z,9.7
2022-09-28T05:47:32.834Z,9.7
2022-09-28T05:48:33.854Z,9.7
2022-09-28T05:49:34.875Z,9.6
2022-09-28T05:50:35.835Z,9.5
2022-09-28T05:51:36.776Z,9.4
2022-09-28T05:52:37.816Z,9.5
2022-09-28T05:53:38.838Z,9.5
2022-09-28T05:54:39.818Z,9.5
2022-09-28T05:55:40.897Z,9.6
2022-09-28T05:56:41.856Z,9.7
2022-09-28T05:57:42.855Z,9.7
2022-09-28T05:58:43.834Z,9.7
2022-09-28T05:59:45.858Z,9.6
2022-09-28T06:00:46.930Z,9.5
2022-09-28T06:01:47.794Z,9.7
2022-09-28T06:02:48.815Z,9.7
2022-09-28T06:03:49.786Z,9.7
2022-09-28T06:04:50.835Z,9.7
2022-09-28T06:05:52.274Z,9.7
2022-09-28T06:06:53.895Z,9.8
2022-09-28T06:07:54.815Z,9.8
2022-09-28T06:08:55.835Z,9.8
2022-09-28T06:09:56.858Z,9.9
2022-09-28T06:10:57.874Z,9.9
2022-09-28T06:11:58.755Z,9.9
2022-09-28T06:12:59.835Z,9.8
2022-09-28T06:14:00.855Z,9.7
2022-09-28T06:15:01.903Z,9.8
2022-09-28T06:16:02.915Z,9.9
2022-09-28T06:17:03.937Z,9.8
2022-09-28T06:18:04.811Z,9.8
2022-09-28T06:19:05.817Z,9.8
2022-09-28T06:20:06.875Z,9.8
2022-09-28T06:21:07.883Z,9.8
2022-09-28T06:22:08.835Z,9.7
2022-09-28T06:23:09.835Z,9.8
2022-09-28T06:24:10.912Z,9.8
2022-09-28T06:25:11.959Z,9.8
2022-09-28T06:26:13.916Z,9.7
2022-09-28T06:27:14.852Z,9.6
2022-09-28T06:28:15.775Z,9.4
2022-09-28T06:29:19.401Z,9.2
2022-09-28T06:30:17.935Z,9.2
2022-09-28T06:31:18.870Z,9.2
2022-09-28T06:32:19.844Z,9
2022-09-28T06:33:21.865Z,8.9
2022-09-28T06:34:22.894Z,8.8
2022-09-28T06:35:23.854Z,8.8
2022-09-28T06:36:24.874Z,8.8
2022-09-28T06:37:25.894Z,8.8
2022-09-28T06:38:26.815Z,8.9
2022-09-28T06:39:27.858Z,8.8
2022-09-28T06:40:29.062Z,8.8
2022-09-28T06:41:29.936Z,8.8
2022-09-28T06:42:31.835Z,8.8
2022-09-28T06:43:34.455Z,8.8
2022-09-28T06:44:34.951Z,8.9
2022-09-28T06:45:36.859Z,9
2022-09-28T06:46:38.056Z,9
2022-09-28T06:47:39.895Z,9
2022-09-28T06:48:41.053Z,9.1
2022-09-28T06:49:42.855Z,9.1
2022-09-28T06:50:43.934Z,9.2
2022-09-28T06:51:44.879Z,9.3
2022-09-28T06:52:45.862Z,9.4
2022-09-28T06:53:46.855Z,9.6
2022-09-28T06:54:47.875Z,9.7
2022-09-28T06:55:48.931Z,9.8
2022-09-28T06:56:50.897Z,9.9
2022-09-28T06:57:52.301Z,10
2022-09-28T06:58:53.876Z,10.1
2022-09-28T06:59:54.819Z,10.1
2022-09-28T07:00:55.906Z,10.1
2022-09-28T07:01:56.948Z,10.2
2022-09-28T07:02:57.934Z,10.3
2022-09-28T07:03:59.897Z,10.3
2022-09-28T07:05:00.835Z,10.3
2022-09-28T07:06:01.897Z,10.4
2022-09-28T07:07:02.957Z,10.5
2022-09-28T07:08:04.894Z,10.5
2022-09-28T07:09:16.539Z,10.5
2022-09-28T07:10:06.896Z,10.6
2022-09-28T07:11:07.921Z,10.7
2022-09-28T07:12:08.915Z,10.7
2022-09-28T07:13:22.362Z,10.7
2022-09-28T07:14:15.877Z,10.5
2022-09-28T07:15:11.954Z,10.5
2022-09-28T07:16:15.839Z,10.5
2022-09-28T07:17:15.233Z,10.6
2022-09-28T07:18:15.918Z,10.7
2022-09-28T07:19:16.894Z,10.8
2022-09-28T07:20:19.527Z,10.8
2022-09-28T07:21:26.999Z,10.9
2022-09-28T07:22:30.769Z,11
2022-09-28T07:23:22.880Z,11.1
2022-09-28T07:24:23.875Z,11
2022-09-28T07:25:24.874Z,10.8
2022-09-28T07:26:25.981Z,10.7
2022-09-28T07:27:28.993Z,10.6
2022-09-28T07:28:27.876Z,10.5
2022-09-28T07:29:28.955Z,10.4
2022-09-28T07:30:30.138Z,10.4
2022-09-28T07:31:30.946Z,10.4
2022-09-28T07:32:32.859Z,10.2
2022-09-28T07:33:33.923Z,10
2022-09-28T07:34:34.915Z,10
2022-09-28T07:35:35.894Z,10
2022-09-28T07:36:37.914Z,10
2022-09-28T07:37:38.996Z,10
2022-09-28T07:38:40.915Z,10
2022-09-28T07:39:41.954Z,10.1
2022-09-28T07:40:47.562Z,10.2
2022-09-28T07:41:45.940Z,10.2
2022-09-28T07:42:46.935Z,10.2
2022-09-28T07:43:47.954Z,10
2022-09-28T07:44:49.959Z,10.1
2022-09-28T07:45:51.933Z,10.1
2022-09-28T07:46:53.937Z,10.3
2022-09-28T07:47:54.883Z,10.5
2022-09-28T07:48:55.876Z,10.7
2022-09-28T07:49:56.894Z,10.8
2022-09-28T07:50:57.918Z,10.8
2022-09-28T07:51:58.895Z,10.7
2022-09-28T07:52:59.915Z,10.8
2022-09-28T07:54:00.897Z,10.7
2022-09-28T07:55:06.093Z,10.7
2022-09-28T07:56:02.935Z,10.7
2022-09-28T07:57:04.919Z,10.6
2022-09-28T07:58:05.939Z,10.4
2022-09-28T07:59:07.955Z,10.3
2022-09-28T08:00:10.088Z,10.3
2022-09-28T08:01:12.043Z,10.2
2022-09-28T08:02:14.074Z,10.1
2022-09-28T08:03:15.878Z,10.1
2022-09-28T08:04:16.901Z,10.2
2022-09-28T08:05:17.902Z,10.3
2022-09-28T08:06:18.883Z,10.4
2022-09-28T08:07:23.611Z,10.3
2022-09-28T08:08:20.967Z,10.2
2022-09-28T08:09:22.895Z,10.2
2022-09-28T08:10:24.934Z,10
2022-09-28T08:11:26.995Z,10
2022-09-28T08:12:28.938Z,9.9
2022-09-28T08:13:31.044Z,9.9
2022-09-28T08:14:32.976Z,10
2022-09-28T08:15:34.916Z,10
2022-09-28T08:17:37.894Z,10.2
2022-09-28T08:18:38.955Z,10.2
2022-09-28T08:19:40.997Z,10.1
2022-09-28T08:20:42.954Z,10
2022-09-28T08:21:44.917Z,10
2022-09-28T08:22:45.900Z,9.9
2022-09-28T08:23:47.273Z,9.9
2022-09-28T08:24:48.960Z,9.9
2022-09-28T08:25:49.996Z,10
2022-09-28T08:26:50.875Z,10
2022-09-28T08:27:52.959Z,10.1
2022-09-28T08:28:55.020Z,10.4
2022-09-28T08:29:56.956Z,10.7
2022-09-28T08:30:57.988Z,10.9
2022-09-28T08:32:01.474Z,11.2
2022-09-28T08:33:00.938Z,11.3
2022-09-28T08:34:01.997Z,11.4
2022-09-28T08:35:02.954Z,11.4
2022-09-28T08:36:04.998Z,11.2
2022-09-28T08:37:06.916Z,11
2022-09-28T08:38:08.937Z,10.9
2022-09-28T08:39:10.018Z,10.9
2022-09-28T08:40:11.995Z,10.7
2022-09-28T08:41:12.935Z,10.8
2022-09-28T08:42:13.922Z,10.8
2022-09-28T08:43:15.979Z,10.7
2022-09-28T08:44:17.058Z,10.8
2022-09-28T08:45:18.951Z,10.9
2022-09-28T08:46:21.749Z,11
2022-09-28T08:47:20.954Z,11.1
2022-09-28T08:48:21.879Z,11.2
2022-09-28T08:49:26.552Z,11.4
2022-09-28T08:50:24.975Z,11.6
2022-09-28T08:51:25.917Z,11.5
2022-09-28T08:52:26.944Z,11.6
2022-09-28T08:53:28.004Z,11.7
2022-09-28T08:54:29.014Z,11.5
2022-09-28T08:55:31.022Z,11.2
2022-09-28T08:56:32.925Z,11.1
2022-09-28T08:57:33.921Z,11.2
2022-09-28T08:58:35.919Z,11.3
2022-09-28T08:59:37.915Z,11.6
2022-09-28T09:00:38.974Z,11.8
2022-09-28T09:01:40.041Z,11.9
2022-09-28T09:02:41.073Z,11.9
2022-09-28T09:03:42.935Z,11.8
2022-09-28T09:04:43.952Z,11.6
2022-09-28T09:05:45.956Z,11.5
2022-09-28T09:06:47.974Z,11.5
2022-09-28T09:07:48.955Z,11.2
2022-09-28T09:08:49.975Z,11.1
2022-09-28T09:09:50.915Z,11.3
2022-09-28T09:10:51.915Z,11.3
2022-09-28T09:11:52.974Z,11.1
2022-09-28T09:12:54.917Z,10.9
2022-09-28T09:13:55.960Z,10.9
2022-09-28T09:14:56.914Z,10.8
2022-09-28T09:15:57.994Z,10.7
2022-09-28T09:17:00.041Z,10.7
2022-09-28T09:18:01.015Z,10.8
2022-09-28T09:19:02.957Z,10.8
2022-09-28T09:20:04.061Z,11
2022-09-28T09:21:06.055Z,11.2
2022-09-28T09:22:07.974Z,11.2
2022-09-28T09:23:09.934Z,11.3
2022-09-28T09:24:10.973Z,11.4
2022-09-28T09:25:11.915Z,11.7
2022-09-28T09:26:14.917Z,11.8
2022-09-28T09:27:15.022Z,11.7
2022-09-28T09:28:16.934Z,11.7
2022-09-28T09:29:18.107Z,11.6
2022-09-28T09:30:20.586Z,11.6
2022-09-28T09:31:22.791Z,11.7
2022-09-28T09:32:21.975Z,11.6
2022-09-28T09:33:22.978Z,11.5
2022-09-28T09:34:23.975Z,11.5
2022-09-28T09:35:29.089Z,11.6
2022-09-28T09:36:26.234Z,11.5
2022-09-28T09:37:27.935Z,11.4
2022-09-28T09:38:28.975Z,11.3
2022-09-28T09:39:29.995Z,11.2
2022-09-28T09:40:31.046Z,11.1
2022-09-28T09:41:32.920Z,11
2022-09-28T09:42:33.982Z,11
2022-09-28T09:43:35.924Z,11.1
2022-09-28T09:44:37.979Z,11.2
2022-09-28T09:45:40.008Z,11.2
2022-09-28T09:46:40.954Z,11.1
2022-09-28T09:47:41.958Z,11.2
2022-09-28T09:48:42.920Z,11.2
2022-09-28T09:49:43.935Z,11.3
2022-09-28T09:50:44.995Z,11.4
2022-09-28T09:51:46.035Z,11.5
2022-09-28T09:52:46.982Z,11.4
2022-09-28T09:53:48.015Z,11.4
2022-09-28T09:54:49.042Z,11.4
2022-09-28T09:55:50.930Z,11.5
2022-09-28T09:56:51.955Z,11.5
2022-09-28T09:57:52.956Z,11.8
2022-09-28T09:58:54.056Z,12.1
2022-09-28T09:59:55.964Z,12.4
2022-09-28T10:00:57.024Z,12.5
2022-09-28T10:01:58.057Z,12.8
2022-09-28T10:02:59.063Z,13
2022-09-28T10:03:59.999Z,13.1
2022-09-28T10:05:00.990Z,13.2
2022-09-28T10:06:02.045Z,13.1
2022-09-28T10:07:03.994Z,13
2022-09-28T10:08:04.995Z,13
2022-09-28T10:09:06.017Z,12.8
2022-09-28T10:10:08.054Z,12.7
2022-09-28T10:11:09.873Z,12.5
2022-09-28T10:12:11.019Z,12.4
2022-09-28T10:13:12.964Z,12.4
2022-09-28T10:14:14.051Z,12.4
2022-09-28T10:15:16.121Z,12.4
2022-09-28T10:16:17.019Z,12.5
2022-09-28T10:17:17.955Z,12.3
2022-09-28T10:18:18.976Z,12.1
2022-09-28T10:19:19.915Z,12
2022-09-28T10:20:20.959Z,12
2022-09-28T10:21:22.994Z,12
2022-09-28T10:22:24.955Z,12.1
2022-09-28T10:23:25.986Z,12.2
2022-09-28T10:24:27.014Z,12.3
2022-09-28T10:25:27.956Z,12.4
2022-09-28T10:26:29.005Z,12.4
2022-09-28T10:27:29.938Z,12.5
2022-09-28T10:28:30.944Z,12.6
2022-09-28T10:29:32.002Z,12.6
2022-09-28T10:30:33.153Z,12.7
2022-09-28T10:31:35.026Z,12.7
2022-09-28T10:32:35.954Z,12.6
2022-09-28T10:33:36.960Z,12.6
2022-09-28T10:34:37.990Z,12.2
2022-09-28T10:35:38.936Z,11.7
2022-09-28T10:36:40.275Z,11.4
2022-09-28T10:37:41.945Z,11.3
2022-09-28T10:38:42.993Z,11.3
2022-09-28T10:39:44.035Z,11.2
2022-09-28T10:40:45.114Z,11.1
2022-09-28T10:41:46.003Z,11.1
2022-09-28T10:42:47.994Z,11.1
2022-09-28T10:43:50.176Z,11
2022-09-28T10:44:49.997Z,10.9
2022-09-28T10:45:51.057Z,11
2022-09-28T10:46:51.975Z,10.9
2022-09-28T10:47:53.136Z,11
2022-09-28T10:48:54.955Z,10.9
2022-09-28T10:49:56.075Z,10.9
2022-09-28T10:50:57.015Z,10.8
2022-09-28T10:51:57.982Z,10.7
2022-09-28T10:52:58.994Z,10.6
2022-09-28T10:54:00.014Z,10.5
2022-09-28T10:55:01.006Z,10.3
2022-09-28T10:56:02.015Z,10.2
2022-09-28T10:57:03.015Z,10
2022-09-28T10:58:03.955Z,9.8
2022-09-28T10:59:04.954Z,9.8
2022-09-28T11:00:06.166Z,9.7
2022-09-28T11:01:08.023Z,9.6
2022-09-28T11:02:09.094Z,9.5
2022-09-28T11:03:11.017Z,9.5
2022-09-28T11:04:12.017Z,9.2
2022-09-28T11:05:13.035Z,9
2022-09-28T11:06:14.995Z,8.8
2022-09-28T11:07:17.189Z,8.6
2022-09-28T11:08:16.996Z,8.5
2022-09-28T11:09:18.053Z,8.5
2022-09-28T11:10:21.360Z,8.4
2022-09-28T11:11:23.035Z,8.3
2022-09-28T11:12:24.955Z,8.3
2022-09-28T11:13:25.954Z,8.3
2022-09-28T11:14:27.076Z,8.2
2022-09-28T11:15:27.954Z,8.1
2022-09-28T11:16:29.179Z,8.1
2022-09-28T11:17:29.974Z,8
2022-09-28T11:18:30.980Z,8
2022-09-28T11:19:32.095Z,8
2022-09-28T11:20:33.094Z,8.1
2022-09-28T11:21:34.954Z,8.1
2022-09-28T11:22:36.015Z,8.2
2022-09-28T11:23:36.974Z,8.4
2022-09-28T11:24:38.955Z,8.6
2022-09-28T11:25:40.015Z,8.8
2022-09-28T11:26:40.954Z,9
2022-09-28T11:27:41.975Z,9.1
2022-09-28T11:28:42.974Z,9.2
2022-09-28T11:29:44.035Z,9.2
2022-09-28T11:30:45.097Z,9.3
2022-09-28T11:31:46.084Z,9.4
2022-09-28T11:32:47.078Z,9.5
2022-09-28T11:33:48.983Z,9.5
2022-09-28T11:35:00.046Z,9.5
2022-09-28T11:35:50.954Z,9.5
2022-09-28T11:36:52.014Z,9.6
2022-09-28T11:37:53.035Z,9.6
2022-09-28T11:38:54.995Z,9.7
2022-09-28T11:39:56.075Z,9.8
2022-09-28T11:40:57.083Z,9.7
2022-09-28T11:41:58.005Z,9.6
2022-09-28T11:42:59.053Z,9.5
2022-09-28T11:43:59.995Z,9.4
2022-09-28T11:45:00.974Z,9.3
2022-09-28T11:46:02.153Z,9.3
2022-09-28T11:47:03.066Z,9.3
2022-09-28T11:48:04.134Z,9.3
2022-09-28T11:49:06.054Z,9.3
2022-09-28T11:50:07.057Z,9.3
2022-09-28T11:51:08.994Z,9.4
2022-09-28T11:52:10.041Z,9.5
2022-09-28T11:53:11.094Z,9.6
2022-09-28T11:54:11.974Z,9.6
2022-09-28T11:55:13.035Z,9.7
2022-09-28T11:56:14.983Z,9.8
2022-09-28T11:57:16.036Z,9.8
2022-09-28T11:58:17.164Z,9.8
2022-09-28T11:59:18.942Z,9.9
2022-09-28T12:00:20.057Z,9.9
2022-09-28T12:01:21.079Z,9.8
2022-09-28T12:02:22.217Z,9.8
2022-09-28T12:03:24.172Z,9.8
2022-09-28T12:04:25.039Z,9.8
2022-09-28T12:05:26.036Z,9.7
2022-09-28T12:06:27.055Z,9.6
2022-09-28T12:07:28.034Z,9.7
2022-09-28T12:08:28.996Z,9.7
2022-09-28T12:09:30.021Z,9.7
2022-09-28T12:10:32.062Z,9.7
2022-09-28T12:11:33.034Z,9.9
2022-09-28T12:12:34.087Z,9.9
2022-09-28T12:13:34.975Z,9.9
2022-09-28T12:14:36.036Z,9.9
2022-09-28T12:15:53.002Z,9.9
2022-09-28T12:17:03.937Z,9.9
2022-09-28T12:17:40.087Z,9.9
2022-09-28T12:18:41.001Z,10
2022-09-28T12:19:42.036Z,9.9
2022-09-28T12:20:43.057Z,9.9
2022-09-28T12:21:44.982Z,10
2022-09-28T12:22:47.074Z,10
2022-09-28T12:23:49.035Z,10.1
2022-09-28T12:24:51.039Z,10.3
2022-09-28T12:25:52.032Z,10.3
2022-09-28T12:26:54.011Z,10.2
2022-09-28T12:27:56.075Z,10.2
2022-09-28T12:28:57.018Z,10.2
2022-09-28T12:29:59.095Z,10.1
2022-09-28T12:31:01.057Z,10.1
2022-09-28T12:32:03.076Z,10
2022-09-28T12:33:05.068Z,10
2022-09-28T12:34:07.071Z,9.9
2022-09-28T12:35:09.055Z,10
2022-09-28T12:36:09.998Z,10
2022-09-28T12:37:11.054Z,10
2022-09-28T12:38:12.042Z,10.1
2022-09-28T12:39:19.295Z,10.1
2022-09-28T12:40:16.122Z,10.1
2022-09-28T12:41:17.007Z,10.2
2022-09-28T12:42:19.056Z,10.2
2022-09-28T12:43:21.027Z,10.3
2022-09-28T12:44:23.054Z,10.4
2022-09-28T12:45:25.044Z,10.6
2022-09-28T12:46:27.100Z,10.7
2022-09-28T12:47:29.036Z,10.8
2022-09-28T12:48:30.098Z,10.9
2022-09-28T12:50:33.673Z,10.9
2022-09-28T12:50:40.063Z,11
2022-09-28T12:51:37.101Z,11
2022-09-28T12:52:39.035Z,11
2022-09-28T12:53:40.055Z,11
2022-09-28T12:54:42.074Z,11
2022-09-28T12:55:44.283Z,11.1
2022-09-28T12:56:46.015Z,11.1
2022-09-28T12:57:47.097Z,11.1
2022-09-28T12:58:49.048Z,11.1
2022-09-28T12:59:51.115Z,11.1
2022-09-28T13:00:53.103Z,11.1
2022-09-28T13:01:55.104Z,11.1
2022-09-28T13:02:57.188Z,11.1
2022-09-28T13:03:59.233Z,11.2
2022-09-28T13:05:01.094Z,11.2
2022-09-28T13:06:03.014Z,11.2
2022-09-28T13:07:05.065Z,11.2
2022-09-28T13:08:07.117Z,11.1
2022-09-28T13:09:08.959Z,11.1
2022-09-28T13:10:10.155Z,11
2022-09-28T13:11:11.051Z,11
2022-09-28T13:12:12.016Z,11
2022-09-28T13:13:13.035Z,11
2022-09-28T13:14:14.176Z,11
2022-09-28T13:15:16.134Z,10.9
2022-09-28T13:16:17.169Z,10.8
2022-09-28T13:17:18.075Z,10.7
2022-09-28T13:18:19.075Z,10.6
2022-09-28T13:19:20.299Z,10.6
2022-09-28T13:20:22.037Z,10.6
2022-09-28T13:21:24.034Z,10.5
2022-09-28T13:22:26.075Z,10.6
2022-09-28T13:23:28.095Z,10.6
2022-09-28T13:24:32.943Z,10.5
2022-09-28T13:25:32.098Z,10.5
2022-09-28T13:26:33.114Z,10.5
2022-09-28T13:27:35.059Z,10.6
2022-09-28T13:28:36.056Z,10.7
2022-09-28T13:29:37.035Z,10.8
2022-09-28T13:30:38.157Z,10.8
2022-09-28T13:31:40.169Z,10.8
2022-09-28T13:32:41.078Z,10.7
2022-09-28T13:33:42.116Z,10.6
2022-09-28T13:34:43.042Z,10.6
2022-09-28T13:35:44.065Z,10.6
2022-09-28T13:36:48.240Z,10.7
2022-09-28T13:37:47.066Z,10.6
2022-09-28T13:38:48.095Z,10.5
2022-09-28T13:39:49.120Z,10.6
2022-09-28T13:40:50.050Z,10.6
2022-09-28T13:41:51.098Z,10.5
2022-09-28T13:42:52.135Z,10.3
2022-09-28T13:43:53.034Z,10.2
2022-09-28T13:44:55.075Z,10
2022-09-28T13:45:57.115Z,10
2022-09-28T13:46:59.116Z,10
2022-09-28T13:48:01.103Z,10.1
2022-09-28T13:49:03.096Z,10
2022-09-28T13:50:05.168Z,10.1
2022-09-28T13:51:07.078Z,10.2
2022-09-28T13:52:09.174Z,10.3
2022-09-28T13:53:11.075Z,10.3
2022-09-28T13:54:12.139Z,10.3
2022-09-28T13:55:13.116Z,10.3
2022-09-28T13:56:14.134Z,10.5
2022-09-28T13:57:16.103Z,10.6
2022-09-28T13:58:18.007Z,10.6
2022-09-28T13:59:20.155Z,10.5
2022-09-28T14:00:22.130Z,10.5
2022-09-28T14:01:24.207Z,10.3
2022-09-28T14:02:26.123Z,10.1
2022-09-28T14:03:27.237Z,10